Terminal Aerodrome Forecast
Issued by NWS Sioux Falls, SD

Home | Current Version | Previous Version | Text Only | Print | Product List | Glossary On
Versions: 1 2 3 4 5 6 7 8 9 10 11 12 13 14 15
621
FTUS43 KFSD 180826 AAA
TAFHON
TAF AMD
KHON 180826Z 1808/1906 21006KT P6SM -SHRA BKN100
     FM181000 14006KT P6SM SCT100
     FM181400 23004KT P6SM SCT150
     FM181800 31008KT P6SM FEW250
     FM182300 35010KT P6SM FEW080=

USA.gov is the U.S. government's official web portal to all federal, state and local government web resources and services.